createdAt,value
2018-09-18T11:18:53.879Z,7.63
2018-09-18T11:21:22.621Z,5.53
2018-09-18T11:23:51.079Z,5.53
2018-09-18T11:26:19.582Z,5.87
2018-09-18T11:28:48.186Z,6.77
2018-09-18T11:31:16.875Z,8.33
2018-09-18T11:33:45.263Z,8.40
2018-09-18T11:36:13.735Z,7.10
2018-09-18T11:38:42.299Z,9.27
2018-09-18T11:41:12.056Z,7.70
2018-09-18T11:43:40.646Z,8.27
2018-09-18T11:46:12.101Z,8.33
2018-09-18T11:48:40.623Z,10.87
2018-09-18T11:51:09.379Z,7.83
2018-09-18T11:53:37.839Z,8.33
2018-09-18T11:56:06.806Z,10.67
2018-09-18T11:58:35.425Z,8.57
2018-09-18T12:01:04.062Z,10.83
2018-09-18T12:03:32.761Z,8.57
2018-09-18T12:06:01.386Z,9.37
2018-09-18T12:08:29.916Z,9.87
2018-09-18T12:10:58.406Z,8.77
2018-09-18T12:13:27.010Z,10.97
2018-09-18T12:15:55.507Z,8.03
2018-09-18T12:18:24.045Z,7.20
2018-09-18T12:20:53.041Z,8.90
2018-09-18T12:23:21.468Z,7.57
2018-09-18T12:25:50.723Z,7.03
2018-09-18T12:28:19.817Z,5.83
2018-09-18T12:30:48.350Z,10.73
2018-09-18T12:33:16.822Z,9.20
2018-09-18T12:35:45.449Z,5.97
2018-09-18T12:38:13.904Z,9.13
2018-09-18T12:40:42.396Z,5.83
2018-09-18T12:43:10.847Z,11.13
2018-09-18T12:45:39.362Z,11.07
2018-09-18T12:48:08.714Z,6.83
2018-09-18T12:50:37.289Z,8.33
2018-09-18T12:53:06.826Z,7.03
2018-09-18T12:55:35.943Z,6.73
2018-09-18T12:58:04.489Z,9.83
2018-09-18T13:00:32.929Z,6.77
2018-09-18T13:03:01.381Z,6.73
2018-09-18T13:05:29.916Z,6.07
2018-09-18T13:07:58.460Z,8.03
2018-09-18T13:10:27.609Z,7.80
2018-09-18T13:12:56.097Z,9.33
2018-09-18T13:15:24.622Z,5.77
2018-09-18T13:17:53.266Z,5.40
2018-09-18T13:20:21.739Z,7.07
2018-09-18T13:22:50.305Z,6.87
2018-09-18T13:25:19.189Z,7.07
2018-09-18T13:27:47.734Z,6.70
2018-09-18T13:30:16.200Z,9.93
2018-09-18T13:32:44.749Z,5.73
2018-09-18T13:35:13.146Z,8.40
2018-09-18T13:37:41.724Z,8.30
2018-09-18T13:40:10.427Z,7.80
2018-09-18T13:42:38.890Z,7.00
2018-09-18T13:45:08.076Z,8.63
2018-09-18T13:47:37.168Z,9.33
2018-09-18T13:50:06.518Z,7.07
2018-09-18T13:52:35.025Z,5.33
2018-09-18T13:55:03.485Z,7.17
2018-09-18T13:57:32.064Z,6.10
2018-09-18T14:00:00.655Z,7.57
2018-09-18T14:02:29.294Z,4.70
2018-09-18T14:04:57.909Z,6.50
2018-09-18T14:07:26.422Z,8.87
2018-09-18T14:09:54.962Z,5.97
2018-09-18T14:12:23.514Z,7.07
2018-09-18T14:14:52.227Z,7.57
2018-09-18T14:17:20.617Z,5.70
2018-09-18T14:19:49.169Z,7.10
2018-09-18T14:22:18.909Z,12.10
2018-09-18T14:24:47.392Z,7.83
2018-09-18T14:27:15.863Z,5.93
2018-09-18T14:29:44.350Z,6.03
2018-09-18T14:32:12.934Z,5.30
2018-09-18T14:34:41.516Z,4.83
2018-09-18T14:37:10.665Z,4.83
2018-09-18T14:39:39.133Z,5.57
2018-09-18T14:42:08.223Z,7.13
2018-09-18T14:44:36.745Z,6.03
2018-09-18T14:47:05.337Z,7.40
2018-09-18T14:49:33.909Z,4.03
2018-09-18T14:52:02.395Z,5.17
2018-09-18T14:54:30.988Z,5.10
2018-09-18T14:57:00.200Z,4.80
2018-09-18T14:59:28.756Z,7.13
2018-09-18T15:01:57.221Z,4.87
2018-09-18T15:04:26.400Z,5.13
2018-09-18T15:06:54.953Z,5.87
2018-09-18T15:09:23.560Z,4.20
2018-09-18T15:11:52.082Z,4.90
2018-09-18T15:14:20.552Z,7.47
2018-09-18T15:16:48.977Z,4.27
2018-09-18T15:19:17.495Z,6.10
2018-09-18T15:21:46.053Z,5.63
2018-09-18T15:24:14.699Z,3.93
2018-09-18T15:26:43.135Z,3.80
2018-09-18T15:29:11.687Z,4.80
2018-09-18T15:31:41.341Z,4.80
2018-09-18T15:34:09.894Z,5.67
2018-09-18T15:36:38.316Z,5.67
2018-09-18T15:39:07.798Z,5.83
2018-09-18T15:41:36.449Z,4.53
2018-09-18T15:44:04.989Z,4.77
2018-09-18T15:46:33.546Z,5.57
2018-09-18T15:49:02.142Z,4.27
2018-09-18T15:51:30.762Z,3.70
2018-09-18T15:53:59.272Z,2.93
2018-09-18T15:56:27.827Z,4.43
2018-09-18T15:58:56.389Z,5.17
2018-09-18T16:01:24.954Z,3.80
2018-09-18T16:03:53.490Z,6.17
2018-09-18T16:06:21.965Z,9.20
2018-09-18T16:08:50.456Z,5.20
2018-09-18T16:11:18.920Z,4.87
2018-09-18T16:13:47.547Z,4.07
2018-09-18T16:16:16.775Z,3.30
2018-09-18T16:18:45.316Z,4.30
2018-09-18T16:21:13.789Z,7.80
2018-09-18T16:23:42.979Z,3.30
2018-09-18T16:26:11.539Z,2.60
2018-09-18T16:28:40.154Z,3.53
2018-09-18T16:31:08.692Z,6.30
2018-09-18T16:33:37.294Z,6.43
2018-09-18T16:36:05.792Z,8.97
2018-09-18T16:38:34.913Z,4.60
2018-09-18T16:41:03.447Z,3.00
2018-09-18T16:43:32.043Z,5.83
2018-09-18T16:46:00.529Z,5.80
2018-09-18T16:48:29.326Z,5.17
2018-09-18T16:50:58.357Z,3.80
2018-09-18T16:53:26.848Z,6.07
2018-09-18T16:55:55.346Z,5.07
2018-09-18T16:58:23.890Z,5.87
2018-09-18T17:00:52.337Z,7.00
2018-09-18T17:03:20.939Z,4.20
2018-09-18T17:05:49.505Z,5.63
2018-09-18T17:08:19.216Z,7.57
2018-09-18T17:10:47.748Z,5.97
2018-09-18T17:13:16.256Z,5.40
2018-09-18T17:15:44.945Z,8.53
2018-09-18T17:18:13.409Z,11.60
2018-09-18T17:20:42.489Z,7.43
2018-09-18T17:23:10.988Z,5.57
2018-09-18T17:25:39.459Z,5.90
2018-09-18T17:28:07.966Z,4.80
2018-09-18T17:30:36.454Z,5.97
2018-09-18T17:33:05.097Z,7.77
2018-09-18T17:35:33.660Z,7.27
2018-09-18T17:38:02.113Z,8.60
2018-09-18T17:40:31.105Z,7.07
2018-09-18T17:42:59.595Z,7.30
2018-09-18T17:45:28.870Z,7.70
2018-09-18T17:47:57.313Z,9.80
2018-09-18T17:50:25.855Z,5.47
2018-09-18T17:52:54.332Z,8.37
2018-09-18T17:55:22.803Z,7.00
2018-09-18T17:57:51.362Z,7.93
2018-09-18T18:00:19.916Z,7.00
2018-09-18T18:02:48.558Z,7.77
2018-09-18T18:05:17.001Z,5.37
2018-09-18T18:07:46.559Z,6.40
2018-09-18T18:10:15.169Z,8.67
2018-09-18T18:12:43.688Z,10.03
2018-09-18T18:15:12.580Z,8.00
2018-09-18T18:17:41.128Z,7.87
2018-09-18T18:20:09.591Z,7.97
2018-09-18T18:22:38.256Z,6.13
2018-09-18T18:25:07.898Z,5.63
2018-09-18T18:27:36.420Z,8.23
2018-09-18T18:30:05.516Z,6.73
2018-09-18T18:32:34.206Z,6.87
2018-09-18T18:35:02.766Z,10.20
2018-09-18T18:37:31.961Z,7.17
2018-09-18T18:40:00.464Z,10.63
2018-09-18T18:42:29.208Z,7.00
2018-09-18T18:44:57.698Z,10.37
2018-09-18T18:47:26.310Z,12.27
2018-09-18T18:49:54.754Z,11.07
2018-09-18T18:52:23.320Z,7.77
2018-09-18T18:54:51.797Z,10.80
2018-09-18T18:57:20.364Z,8.93
2018-09-18T18:59:48.802Z,5.67
2018-09-18T19:02:17.354Z,10.00
2018-09-18T19:04:45.835Z,9.37
2018-09-18T19:07:15.034Z,9.07
2018-09-18T19:09:43.507Z,9.73
2018-09-18T19:12:12.049Z,10.70
2018-09-18T19:14:41.285Z,9.10
2018-09-18T19:17:09.799Z,11.00
2018-09-18T19:19:38.324Z,7.77
2018-09-18T19:22:07.551Z,7.47
2018-09-18T19:24:36.835Z,9.57
2018-09-18T19:27:05.435Z,8.37
2018-09-18T19:29:33.972Z,9.43
2018-09-18T19:32:02.499Z,12.67
2018-09-18T19:34:32.255Z,4.97
2018-09-18T19:37:00.769Z,7.87
2018-09-18T19:39:29.291Z,8.07
2018-09-18T19:41:57.828Z,6.97
2018-09-18T19:44:26.328Z,10.83
2018-09-18T19:46:54.886Z,9.07
2018-09-18T19:49:23.437Z,11.23
2018-09-18T19:51:51.937Z,10.67
2018-09-18T19:54:21.181Z,12.30
2018-09-18T19:56:50.424Z,10.97
2018-09-18T19:59:19.002Z,12.10
2018-09-18T20:01:47.563Z,10.43
2018-09-18T20:04:16.119Z,10.63
2018-09-18T20:06:44.665Z,10.40
2018-09-18T20:09:13.264Z,9.63
2018-09-18T20:11:41.720Z,10.27
2018-09-18T20:14:10.322Z,9.57
2018-09-18T20:16:38.876Z,10.60
2018-09-18T20:19:07.416Z,8.63
2018-09-18T20:21:36.687Z,8.20
2018-09-18T20:24:05.215Z,9.33
2018-09-18T20:26:33.797Z,9.60
2018-09-18T20:29:02.407Z,12.03
2018-09-18T20:31:31.031Z,12.00
2018-09-18T20:33:59.513Z,11.27
2018-09-18T20:36:28.310Z,7.90
2018-09-18T20:38:57.012Z,10.87
2018-09-18T20:41:25.531Z,8.43
2018-09-18T20:43:54.156Z,11.47
2018-09-18T20:46:23.321Z,12.20
2018-09-18T20:48:51.870Z,9.63
2018-09-18T20:51:20.420Z,9.80
2018-09-18T20:53:49.048Z,12.90
2018-09-18T20:56:17.601Z,11.13
2018-09-18T20:58:46.123Z,9.03
2018-09-18T21:01:14.616Z,14.50
2018-09-18T21:03:43.106Z,13.90
2018-09-18T21:06:11.700Z,11.53
2018-09-18T21:08:40.758Z,13.63
2018-09-18T21:11:09.215Z,10.73
2018-09-18T21:13:37.742Z,15.80
2018-09-18T21:16:06.456Z,9.77
2018-09-18T21:18:35.076Z,11.70
2018-09-18T21:21:03.570Z,12.87
2018-09-18T21:23:32.198Z,11.33
2018-09-18T21:26:06.915Z,16.07
2018-09-18T21:28:35.386Z,10.47
2018-09-18T21:31:04.654Z,9.97
2018-09-18T21:33:33.922Z,8.73
2018-09-18T21:36:02.399Z,12.40
2018-09-18T21:38:31.356Z,14.73
2018-09-18T21:40:59.889Z,13.33
2018-09-18T21:43:29.224Z,11.97
2018-09-18T21:45:57.679Z,15.73
2018-09-18T21:48:26.331Z,12.53
2018-09-18T21:50:54.857Z,17.23
2018-09-18T21:53:23.434Z,14.07
2018-09-18T21:55:51.936Z,15.90
2018-09-18T21:58:20.549Z,15.57
2018-09-18T22:00:49.033Z,14.67
2018-09-18T22:03:17.708Z,13.23
2018-09-18T22:05:46.214Z,14.93
2018-09-18T22:08:14.646Z,16.23
2018-09-18T22:10:43.356Z,12.93
2018-09-18T22:13:11.846Z,12.17
2018-09-18T22:15:40.442Z,14.77
2018-09-18T22:18:08.960Z,16.80
2018-09-18T22:20:37.423Z,11.50
2018-09-18T22:23:05.895Z,11.27
2018-09-18T22:25:34.998Z,14.73
2018-09-18T22:28:03.501Z,12.20
2018-09-18T22:30:31.974Z,12.23
2018-09-18T22:33:00.449Z,15.73
2018-09-18T22:35:28.956Z,13.53
2018-09-18T22:37:57.929Z,12.30
2018-09-18T22:40:26.383Z,14.30
2018-09-18T22:42:54.957Z,15.70
2018-09-18T22:45:24.005Z,15.00
2018-09-18T22:47:52.955Z,12.10
2018-09-18T22:50:21.432Z,15.97
2018-09-18T22:52:49.972Z,11.97
2018-09-18T22:55:18.412Z,14.37
2018-09-18T22:57:46.869Z,11.10
2018-09-18T23:00:15.344Z,11.70
2018-09-18T23:02:44.472Z,12.80
2018-09-18T23:05:13.564Z,14.47
2018-09-18T23:07:42.133Z,15.97
2018-09-18T23:10:11.187Z,19.50
2018-09-18T23:12:40.435Z,15.53
2018-09-18T23:15:08.940Z,18.17
2018-09-18T23:17:38.099Z,17.87
2018-09-18T23:20:06.993Z,13.23
2018-09-18T23:22:35.690Z,20.97
2018-09-18T23:25:04.861Z,17.63
2018-09-18T23:27:33.281Z,15.47
2018-09-18T23:30:01.728Z,17.40
2018-09-18T23:32:30.174Z,24.53
2018-09-18T23:34:59.223Z,14.17
2018-09-18T23:37:27.676Z,14.83
2018-09-18T23:39:56.890Z,16.00
2018-09-18T23:42:25.342Z,12.13
2018-09-18T23:44:53.821Z,12.83
2018-09-18T23:47:22.291Z,16.60
2018-09-18T23:49:50.900Z,15.70
2018-09-18T23:52:19.374Z,16.53
2018-09-18T23:54:47.955Z,14.00
2018-09-18T23:57:16.485Z,12.17
2018-09-18T23:59:44.917Z,15.77
